Time;durP1;ratioP1;P1;durP2;ratioP2;P2;SDS_P1;SDS_P2;PMS_P1;PMS_P2;Temp;Humidity;BMP_temperature;BMP_pressure;BME280_temperature;BME280_humidity;BME280_pressure;Samples;Min_cycle;Max_cycle;Signal;HPM_P1;HPM_P2
2022/11/19 00:01:04;;;;;;;62.88;26.40;;;;;;;5.16;100.00;100412.47;5024266;28;20128;-81
2022/11/19 00:03:31;;;;;;;66.45;27.90;;;;;;;5.15;100.00;100419.75;5007110;28;20068;-82
2022/11/19 00:06:02;;;;;;;63.72;28.20;;;;;;;5.16;100.00;100420.63;5006054;28;20033;-82
2022/11/19 00:08:28;;;;;;;65.25;27.05;;;;;;;5.26;100.00;100427.22;5023026;28;20090;-82
2022/11/19 00:10:53;;;;;;;71.32;28.70;;;;;;;5.25;100.00;100420.03;5006010;28;20105;-82
2022/11/19 00:13:18;;;;;;;72.78;28.10;;;;;;;5.23;100.00;100411.13;5022646;28;20049;-81
2022/11/19 00:15:44;;;;;;;67.13;28.00;;;;;;;5.39;100.00;100424.56;5007135;28;20048;-82
2022/11/19 00:18:09;;;;;;;60.97;26.30;;;;;;;5.30;100.00;100423.34;4979969;28;20072;-82
2022/11/19 00:20:34;;;;;;;66.60;28.98;;;;;;;5.37;100.00;100426.53;4990742;28;20358;-81
2022/11/19 00:23:00;;;;;;;74.63;29.65;;;;;;;5.36;100.00;100424.75;5022831;28;20049;-81
2022/11/19 00:25:29;;;;;;;73.88;29.60;;;;;;;5.24;100.00;100431.00;4986559;28;20041;-81
2022/11/19 00:27:58;;;;;;;72.60;30.20;;;;;;;5.32;100.00;100434.94;5003718;28;20034;-82
2022/11/19 00:30:24;;;;;;;73.22;29.70;;;;;;;5.40;100.00;100430.91;5017525;28;20041;-82
2022/11/19 00:32:50;;;;;;;81.22;31.27;;;;;;;5.25;100.00;100414.63;5035517;28;20029;-82
2022/11/19 00:35:15;;;;;;;68.15;27.88;;;;;;;5.13;100.00;100428.94;5007087;28;20163;-82
2022/11/19 00:37:41;;;;;;;64.65;25.33;;;;;;;4.98;100.00;100447.06;4988846;28;20060;-82
2022/11/19 00:40:07;;;;;;;57.13;26.30;;;;;;;4.78;100.00;100424.78;5006880;28;20029;-82
2022/11/19 00:42:33;;;;;;;64.20;26.65;;;;;;;4.87;100.00;100442.34;5023226;28;20036;-81
2022/11/19 00:44:59;;;;;;;59.95;27.20;;;;;;;4.98;100.00;100447.06;5006081;28;20033;-82
2022/11/19 00:47:25;;;;;;;57.10;26.02;;;;;;;5.03;100.00;100453.09;5009122;28;20049;-82
2022/11/19 00:49:50;;;;;;;59.15;26.38;;;;;;;5.00;100.00;100456.00;5025064;28;20458;-82
2022/11/19 00:52:16;;;;;;;58.97;25.58;;;;;;;4.74;100.00;100450.34;5009541;28;20042;-83
2022/11/19 00:54:42;;;;;;;50.00;21.52;;;;;;;4.95;100.00;100455.41;5009751;28;20072;-83
2022/11/19 00:57:07;;;;;;;56.22;25.88;;;;;;;4.90;100.00;100461.13;5024575;28;20065;-82
2022/11/19 00:59:33;;;;;;;46.65;22.88;;;;;;;4.89;100.00;100456.66;5008357;28;20053;-82
2022/11/19 01:01:58;;;;;;;53.28;23.95;;;;;;;4.84;100.00;100455.19;4992466;28;20033;-82
2022/11/19 01:04:24;;;;;;;53.30;23.83;;;;;;;4.91;100.00;100465.56;4993031;28;20029;-82
2022/11/19 01:06:49;;;;;;;48.05;22.42;;;;;;;5.03;100.00;100463.06;5042509;28;20128;-82
2022/11/19 01:09:15;;;;;;;49.42;23.33;;;;;;;4.95;100.00;100459.00;5008889;28;20029;-81
2022/11/19 01:11:40;;;;;;;47.95;22.05;;;;;;;4.96;100.00;100465.28;4992913;28;20474;-82
2022/11/19 01:14:06;;;;;;;40.00;21.90;;;;;;;4.86;100.00;100443.28;5009561;28;20064;-82
2022/11/19 01:16:34;;;;;;;33.67;16.95;;;;;;;4.86;100.00;100469.56;5042523;28;20033;-82
2022/11/19 01:19:01;;;;;;;42.28;21.05;;;;;;;4.79;100.00;100480.78;5042404;28;20049;-83
2022/11/19 01:21:29;;;;;;;41.33;21.38;;;;;;;4.76;100.00;100475.53;4991855;28;20047;-82
2022/11/19 01:23:56;;;;;;;34.97;16.20;;;;;;;4.74;100.00;100485.59;5023427;28;20116;-83
2022/11/19 01:26:22;;;;;;;34.35;19.65;;;;;;;4.58;100.00;100487.50;5024283;28;20036;-83
2022/11/19 01:28:48;;;;;;;35.50;19.27;;;;;;;4.52;100.00;100488.72;5024384;28;20065;-82
2022/11/19 01:31:16;;;;;;;32.53;18.60;;;;;;;4.53;100.00;100495.03;5008157;28;20041;-82
2022/11/19 01:33:42;;;;;;;37.20;19.17;;;;;;;4.52;100.00;100499.56;5006482;28;20032;-83
2022/11/19 01:36:15;;;;;;;30.83;18.23;;;;;;;4.58;100.00;100499.22;5005960;28;20191;-82
2022/11/19 01:38:40;;;;;;;35.17;19.15;;;;;;;4.49;100.00;100491.63;5025132;28;20029;-82
2022/11/19 01:41:07;;;;;;;33.63;17.77;;;;;;;4.51;100.00;100497.84;5009478;28;20034;-82
2022/11/19 01:43:49;;;;;;;35.25;18.60;;;;;;;4.54;100.00;100505.78;5007701;28;20034;-82
2022/11/19 01:46:17;;;;;;;34.92;17.80;;;;;;;4.42;100.00;100499.25;5041523;28;20072;-82
2022/11/19 01:49:11;;;;;;;28.98;17.38;;;;;;;4.40;100.00;100503.88;5039909;28;20028;-82
2022/11/19 01:51:50;;;;;;;34.58;18.13;;;;;;;4.50;100.00;100509.63;5024858;28;20558;-82
2022/11/19 01:54:34;;;;;;;30.27;15.57;;;;;;;4.48;100.00;100511.56;5024208;28;20083;-82
2022/11/19 01:57:08;;;;;;;32.03;16.48;;;;;;;4.50;100.00;100512.34;5023302;28;20061;-82
2022/11/19 01:59:34;;;;;;;32.40;18.13;;;;;;;4.42;100.00;100523.63;5000931;28;20030;-82
2022/11/19 02:02:00;;;;;;;42.05;18.20;;;;;;;4.29;100.00;100524.47;4983675;28;20038;-82
2022/11/19 02:04:26;;;;;;;25.75;15.15;;;;;;;4.23;100.00;100518.44;4971688;28;20370;-82
2022/11/19 02:06:53;;;;;;;32.20;17.35;;;;;;;4.35;100.00;100532.25;5017253;28;20038;-82
2022/11/19 02:09:19;;;;;;;27.38;16.27;;;;;;;4.47;100.00;100522.50;5015312;28;20025;-82
2022/11/19 02:11:59;;;;;;;27.60;16.20;;;;;;;4.35;100.00;100530.41;5041908;28;20080;-82
2022/11/19 02:14:36;;;;;;;28.35;15.73;;;;;;;4.24;100.00;100531.00;5024332;28;20114;-82
2022/11/19 02:17:11;;;;;;;25.77;15.40;;;;;;;4.10;100.00;100528.25;5009221;28;20022;-82
2022/11/19 02:20:14;;;;;;;27.17;14.93;;;;;;;4.00;100.00;100521.59;5009556;28;20069;-82
2022/11/19 02:22:58;;;;;;;23.80;14.75;;;;;;;3.97;100.00;100521.78;5026284;28;20049;-82
2022/11/19 02:25:57;;;;;;;19.63;13.50;;;;;;;3.90;100.00;100534.78;5006446;28;20030;-82
2022/11/19 02:29:04;;;;;;;23.60;14.95;;;;;;;3.89;100.00;100534.88;5006021;28;20034;-82
2022/11/19 02:32:02;;;;;;;27.58;14.00;;;;;;;3.87;100.00;100540.41;4923137;29;20127;-82
2022/11/19 02:34:37;;;;;;;26.20;14.77;;;;;;;3.77;100.00;100542.75;4925860;29;20039;-82
2022/11/19 02:37:06;;;;;;;26.30;13.52;;;;;;;3.69;100.00;100536.88;5001769;28;20399;-82
2022/11/19 02:39:42;;;;;;;24.33;14.27;;;;;;;3.72;100.00;100533.13;5019843;28;20111;-82
2022/11/19 02:42:22;;;;;;;26.95;15.57;;;;;;;3.65;100.00;100543.41;5038268;28;20489;-82
2022/11/19 02:45:14;;;;;;;23.42;14.68;;;;;;;3.76;100.00;100553.66;5005292;28;20025;-82
2022/11/19 02:47:44;;;;;;;25.17;15.52;;;;;;;3.66;100.00;100546.03;4999093;28;20446;-82
2022/11/19 02:50:13;;;;;;;27.45;14.73;;;;;;;3.66;100.00;100547.88;5021923;28;20374;-82
2022/11/19 02:52:40;;;;;;;21.73;14.02;;;;;;;3.71;100.00;100548.50;5021949;28;20037;-82
2022/11/19 02:55:06;;;;;;;26.45;16.25;;;;;;;3.60;100.00;100550.91;5022483;28;20126;-82
2022/11/19 02:57:34;;;;;;;20.15;12.43;;;;;;;3.72;100.00;100542.09;4989310;28;20033;-82
2022/11/19 03:06:16;;;;;;;29.15;14.85;;;;;;;3.65;100.00;100548.81;5039582;28;20029;-82
2022/11/19 03:08:43;;;;;;;29.17;16.60;;;;;;;3.66;100.00;100547.88;5037520;28;20033;-82
2022/11/19 03:11:15;;;;;;;23.23;14.27;;;;;;;3.56;100.00;100552.03;5005498;28;20033;-81
2022/11/19 03:16:40;;;;;;;36.30;16.95;;;;;;;3.59;100.00;100547.34;5039147;28;20034;-82
2022/11/19 03:19:44;;;;;;;24.10;15.48;;;;;;;3.61;100.00;100555.38;5005579;28;20025;-82
2022/11/19 03:22:33;;;;;;;31.83;16.73;;;;;;;3.44;100.00;100557.19;4959429;29;20031;-83
2022/11/19 03:24:59;;;;;;;34.35;18.00;;;;;;;3.41;100.00;100568.19;5007656;28;20456;-81
2022/11/19 03:27:29;;;;;;;30.30;16.15;;;;;;;3.45;100.00;100558.91;5037786;28;20045;-82
2022/11/19 03:29:59;;;;;;;26.15;16.15;;;;;;;3.49;100.00;100565.03;5021538;28;20032;-82
2022/11/19 03:32:30;;;;;;;30.40;17.08;;;;;;;3.42;100.00;100569.03;5021786;28;20435;-82
2022/11/19 03:35:00;;;;;;;31.00;17.27;;;;;;;3.29;100.00;100558.00;5003027;28;20064;-82
2022/11/19 03:37:30;;;;;;;30.80;17.08;;;;;;;3.36;100.00;100572.97;5017852;28;20038;-82
2022/11/19 03:39:59;;;;;;;27.98;16.42;;;;;;;3.35;100.00;100571.19;5002213;28;20487;-82
2022/11/19 03:42:26;;;;;;;32.80;16.13;;;;;;;3.31;100.00;100566.91;5005540;28;20362;-82
2022/11/19 03:45:00;;;;;;;33.83;16.45;;;;;;;3.33;100.00;100569.53;5005464;28;20029;-82
2022/11/19 03:47:33;;;;;;;31.48;17.20;;;;;;;3.39;100.00;100569.19;5039072;28;20034;-82
2022/11/19 03:50:02;;;;;;;;;;;;;;;3.37;100.00;100574.69;5018541;28;20087;-82
2022/11/19 03:52:28;;;;;;;32.30;17.30;;;;;;;3.29;100.00;100566.97;5020721;28;19909;-82
2022/11/19 03:54:53;;;;;;;31.88;16.25;;;;;;;3.24;100.00;100562.78;5037256;28;20401;-82
2022/11/19 03:57:22;;;;;;;35.25;16.55;;;;;;;3.36;100.00;100574.78;5021479;28;20381;-82
2022/11/19 03:59:48;;;;;;;34.60;15.63;;;;;;;3.25;100.00;100581.63;5018439;28;20026;-82
2022/11/19 04:02:15;;;;;;;29.08;16.20;;;;;;;3.25;100.00;100588.91;5034062;28;20087;-82
2022/11/19 04:04:40;;;;;;;35.92;17.27;;;;;;;3.16;100.00;100583.97;5021908;28;20037;-82
2022/11/19 04:07:13;;;;;;;37.90;18.65;;;;;;;3.15;100.00;100580.38;4988250;28;20038;-82
2022/11/19 04:09:40;;;;;;;47.92;18.67;;;;;;;3.20;100.00;100583.72;4986746;28;20041;-82
2022/11/19 04:12:15;;;;;;;33.58;18.08;;;;;;;3.19;100.00;100583.81;5004143;28;20481;-82
2022/11/19 04:14:40;;;;;;;39.72;19.35;;;;;;;3.08;100.00;100585.25;5023100;28;20030;-81
2022/11/19 04:17:06;;;;;;;36.60;18.02;;;;;;;3.04;100.00;100589.06;5038912;28;20032;-81
2022/11/19 04:19:32;;;;;;;37.55;18.80;;;;;;;3.13;100.00;100593.09;5022175;28;20056;-82
2022/11/19 04:21:57;;;;;;;40.53;18.23;;;;;;;3.10;100.00;100599.56;5007958;28;20037;-81
2022/11/19 04:24:23;;;;;;;35.67;18.33;;;;;;;3.07;100.00;100601.56;5026344;28;20056;-82
2022/11/19 04:26:48;;;;;;;40.63;19.05;;;;;;;3.17;100.00;100601.94;5009928;28;20092;-82
2022/11/19 04:29:14;;;;;;;33.85;17.13;;;;;;;3.10;100.00;100607.69;5008621;28;20039;-81
2022/11/19 04:31:39;;;;;;;36.83;19.40;;;;;;;3.04;100.00;100610.69;4992287;28;20036;-82
2022/11/19 04:34:05;;;;;;;40.92;19.77;;;;;;;3.08;100.00;100604.19;5008467;28;20106;-82
2022/11/19 04:36:31;;;;;;;39.72;21.00;;;;;;;3.04;100.00;100607.13;5026073;28;20068;-82
2022/11/19 04:38:56;;;;;;;38.08;19.50;;;;;;;3.02;100.00;100606.34;5024509;28;20053;-81
2022/11/19 04:41:22;;;;;;;38.03;19.73;;;;;;;3.02;100.00;100609.03;5025174;28;20026;-82
2022/11/19 04:43:48;;;;;;;34.55;18.67;;;;;;;3.02;100.00;100615.31;5009724;28;20448;-82
2022/11/19 04:46:13;;;;;;;38.63;20.35;;;;;;;2.91;100.00;100609.56;5009428;28;20064;-81
2022/11/19 04:48:38;;;;;;;37.72;20.10;;;;;;;2.99;100.00;100610.06;5025408;28;20029;-82
2022/11/19 04:51:04;;;;;;;37.00;18.40;;;;;;;3.01;100.00;100618.97;5026892;28;20040;-81
2022/11/19 04:53:29;;;;;;;40.58;20.35;;;;;;;3.17;100.00;100620.88;5041767;28;20061;-82
2022/11/19 04:55:55;;;;;;;38.55;20.60;;;;;;;3.04;100.00;100626.91;5028321;28;20056;-81
2022/11/19 04:58:20;;;;;;;44.33;21.08;;;;;;;3.08;100.00;100636.63;4993601;28;20030;-82
2022/11/19 05:00:47;;;;;;;45.80;21.27;;;;;;;3.01;100.00;100626.22;5026267;28;20033;-81
2022/11/19 05:03:12;;;;;;;40.30;19.55;;;;;;;3.09;100.00;100632.09;5019573;28;20076;-81
2022/11/19 05:05:38;;;;;;;37.72;20.38;;;;;;;2.88;100.00;100625.94;5026423;28;20096;-81
2022/11/19 05:08:03;;;;;;;43.03;21.52;;;;;;;2.89;100.00;100634.00;5027775;28;20069;-83
2022/11/19 05:10:29;;;;;;;40.83;21.50;;;;;;;2.89;100.00;100633.13;5011100;28;20029;-82
2022/11/19 05:12:54;;;;;;;42.60;21.73;;;;;;;2.99;100.00;100636.25;5011526;28;20057;-82
2022/11/19 05:15:20;;;;;;;44.08;21.42;;;;;;;3.02;100.00;100633.38;4990801;28;20050;-81
2022/11/19 05:17:46;;;;;;;45.45;22.38;;;;;;;2.84;100.00;100627.94;5017123;28;20033;-82
2022/11/19 05:20:12;;;;;;;45.22;22.15;;;;;;;2.99;100.00;100644.34;5010845;28;20029;-81
2022/11/19 05:22:38;;;;;;;44.88;22.95;;;;;;;2.89;100.00;100641.25;5008849;28;20362;-81
2022/11/19 05:25:03;;;;;;;46.65;24.02;;;;;;;2.92;100.00;100646.50;5025229;28;20029;-82
2022/11/19 05:27:29;;;;;;;51.88;24.33;;;;;;;2.82;100.00;100640.66;5041672;28;20083;-82
2022/11/19 05:29:54;;;;;;;51.72;24.00;;;;;;;2.84;100.00;100643.31;4976521;28;20037;-82
2022/11/19 05:32:20;;;;;;;45.28;22.90;;;;;;;2.78;100.00;100647.16;4997642;28;20334;-81
2022/11/19 05:34:45;;;;;;;50.75;22.77;;;;;;;2.84;100.00;100652.28;5040934;28;20038;-82
2022/11/19 05:37:11;;;;;;;42.78;22.73;;;;;;;2.74;100.00;100662.69;4992866;28;20486;-81
2022/11/19 05:39:36;;;;;;;44.72;24.08;;;;;;;2.76;100.00;100662.59;4991052;28;20040;-82
2022/11/19 05:42:01;;;;;;;47.75;21.90;;;;;;;2.81;100.00;100655.13;4992407;28;20053;-82
2022/11/19 05:44:27;;;;;;;53.13;24.80;;;;;;;2.73;100.00;100670.84;5009430;28;20128;-82
2022/11/19 05:46:54;;;;;;;50.95;24.77;;;;;;;2.80;100.00;100675.00;5005862;28;20045;-81
2022/11/19 05:49:19;;;;;;;49.03;22.95;;;;;;;2.76;100.00;100676.97;5030250;28;20026;-82
2022/11/19 05:51:45;;;;;;;44.83;22.60;;;;;;;2.64;100.00;100677.59;5024448;28;20132;-83
2022/11/19 05:54:10;;;;;;;45.85;24.20;;;;;;;2.60;100.00;100681.41;5009001;28;20444;-83
2022/11/19 05:56:36;;;;;;;49.53;25.55;;;;;;;2.58;100.00;100673.34;4993171;28;20037;-83
2022/11/19 05:59:01;;;;;;;51.90;25.83;;;;;;;2.57;100.00;100677.03;5008675;28;20037;-82
2022/11/19 06:01:28;;;;;;;58.70;26.40;;;;;;;2.53;100.00;100691.63;5023140;28;20358;-80
2022/11/19 06:03:54;;;;;;;54.05;26.08;;;;;;;2.65;100.00;100691.97;4991254;28;20055;-81
2022/11/19 06:06:20;;;;;;;54.30;26.02;;;;;;;2.66;100.00;100700.03;5002709;28;20485;-81
2022/11/19 06:08:46;;;;;;;53.85;24.42;;;;;;;2.58;100.00;100694.13;5004639;28;20056;-82
2022/11/19 06:11:46;;;;;;;57.67;26.83;;;;;;;2.67;100.00;100701.78;5014952;28;20120;-82
2022/11/19 06:13:58;;;;;;;57.55;26.52;;;;;;;2.65;100.00;100698.25;5027537;28;20072;-86
2022/11/19 06:16:23;;;;;;;53.15;24.33;;;;;;;2.50;100.00;100686.38;4991790;28;20029;-85
2022/11/19 06:18:49;;;;;;;54.40;25.63;;;;;;;2.62;100.00;100705.66;5007307;28;20033;-83
2022/11/19 06:21:14;;;;;;;55.50;25.85;;;;;;;2.62;100.00;100713.75;4991484;28;20025;-86
2022/11/19 06:23:40;;;;;;;53.85;24.80;;;;;;;2.66;100.00;100718.94;5009866;28;20036;-85
2022/11/19 06:26:09;;;;;;;60.42;27.67;;;;;;;2.67;100.00;100715.31;5010339;28;20093;-86
2022/11/19 06:28:35;;;;;;;56.45;24.77;;;;;;;2.68;100.00;100716.16;4994083;28;20091;-86
2022/11/19 06:31:00;;;;;;;60.75;25.60;;;;;;;2.71;100.00;100725.00;4994130;28;20064;-85
2022/11/19 06:33:26;;;;;;;59.92;28.13;;;;;;;2.50;100.00;100702.59;5024028;28;20100;-84
2022/11/19 06:35:51;;;;;;;58.22;26.38;;;;;;;2.65;100.00;100730.69;5025206;28;20055;-83
2022/11/19 06:38:17;;;;;;;62.53;28.65;;;;;;;2.59;100.00;100730.97;5023548;28;20047;-85
2022/11/19 06:40:48;;;;;;;66.10;28.63;;;;;;;2.70;100.00;100736.75;5008002;28;20040;-86
2022/11/19 06:43:14;;;;;;;65.60;28.92;;;;;;;2.51;100.00;100731.38;4993853;28;20029;-86
2022/11/19 06:45:39;;;;;;;62.33;27.77;;;;;;;2.44;100.00;100723.63;4990614;28;20038;-86
2022/11/19 06:48:05;;;;;;;68.40;29.58;;;;;;;2.47;100.00;100745.09;5020411;28;20058;-86
2022/11/19 06:50:30;;;;;;;66.50;29.20;;;;;;;2.55;100.00;100751.00;4994001;28;20045;-84
2022/11/19 06:52:56;;;;;;;61.72;26.02;;;;;;;2.38;100.00;100743.72;5021124;28;20042;-87
2022/11/19 06:55:22;;;;;;;57.40;26.35;;;;;;;2.41;100.00;100748.97;5004859;28;20120;-85
2022/11/19 06:57:47;;;;;;;69.78;28.67;;;;;;;2.24;100.00;100736.22;5004309;28;20034;-85
2022/11/19 07:00:13;;;;;;;67.70;27.75;;;;;;;2.33;100.00;100737.66;5021896;28;20026;-85
2022/11/19 07:02:39;;;;;;;66.95;28.88;;;;;;;2.38;100.00;100744.56;4983203;28;20052;-83
2022/11/19 07:05:06;;;;;;;60.53;27.20;;;;;;;2.25;100.00;100734.41;5005092;28;20041;-83
2022/11/19 07:07:33;;;;;;;69.97;29.20;;;;;;;2.37;100.00;100759.03;5008205;28;20080;-81
2022/11/19 07:09:59;;;;;;;61.28;27.17;;;;;;;2.32;100.00;100749.41;5039236;28;20040;-82
2022/11/19 07:12:24;;;;;;;63.58;28.60;;;;;;;2.36;100.00;100760.00;5008532;28;20057;-82
2022/11/19 07:14:50;;;;;;;70.22;28.40;;;;;;;2.33;100.00;100765.53;4985434;28;20049;-83
2022/11/19 07:17:15;;;;;;;66.78;27.70;;;;;;;2.36;100.00;100768.09;4999608;28;20037;-82
2022/11/19 07:19:41;;;;;;;51.40;24.42;;;;;;;2.26;100.00;100758.66;5009128;28;20037;-83
2022/11/19 07:22:06;;;;;;;69.28;27.50;;;;;;;2.27;100.00;100782.00;5015228;28;20121;-81
2022/11/19 07:24:32;;;;;;;62.92;26.38;;;;;;;2.31;100.00;100774.66;4996101;28;20078;-82
2022/11/19 07:26:57;;;;;;;63.17;25.40;;;;;;;2.35;100.00;100795.19;5004760;28;20047;-82
2022/11/19 07:29:23;;;;;;;66.45;26.38;;;;;;;2.18;100.00;100774.31;5021112;28;20048;-84
2022/11/19 07:31:49;;;;;;;72.45;29.52;;;;;;;2.16;100.00;100782.50;4989415;28;20116;-83
2022/11/19 07:34:15;;;;;;;62.97;27.63;;;;;;;2.13;100.00;100792.56;4989805;28;20030;-83
2022/11/19 07:36:41;;;;;;;58.10;24.65;;;;;;;2.31;100.00;100793.56;4996983;28;20033;-83
2022/11/19 07:39:07;;;;;;;72.75;28.55;;;;;;;2.27;100.00;100797.34;5021976;28;20040;-82
2022/11/19 07:44:17;;;;;;;68.85;27.52;;;;;;;2.24;100.00;100802.91;5041270;28;20037;-84
2022/11/19 07:46:43;;;;;;;65.60;26.95;;;;;;;2.22;100.00;100805.66;5006064;28;20034;-82
2022/11/19 07:49:08;;;;;;;65.75;27.05;;;;;;;2.20;100.00;100803.03;5022320;28;20029;-81
2022/11/19 07:51:34;;;;;;;65.45;27.10;;;;;;;2.19;100.00;100809.38;5013529;28;20048;-82
2022/11/19 07:53:59;;;;;;;72.28;29.33;;;;;;;2.24;100.00;100811.88;5012698;28;20084;-81
2022/11/19 07:56:25;;;;;;;71.40;28.23;;;;;;;2.17;100.00;100808.56;5001959;28;20026;-82
2022/11/19 07:58:51;;;;;;;65.88;28.23;;;;;;;2.34;100.00;100826.69;4991068;28;20068;-82
2022/11/19 08:01:20;;;;;;;66.00;27.20;;;;;;;2.32;100.00;100814.22;5035336;28;20358;-82
2022/11/19 08:03:47;;;;;;;66.53;26.58;;;;;;;2.23;100.00;100825.44;5012696;28;20030;-81
2022/11/19 08:06:14;;;;;;;77.03;28.80;;;;;;;2.25;100.00;100824.44;5037766;28;20029;-83
2022/11/19 08:08:40;;;;;;;75.55;29.00;;;;;;;2.33;100.00;100824.09;5042927;28;20068;-81
2022/11/19 08:11:07;;;;;;;70.53;26.90;;;;;;;2.16;100.00;100820.31;5023303;28;20095;-82
2022/11/19 08:13:33;;;;;;;77.15;28.02;;;;;;;2.33;100.00;100829.50;5009231;28;20093;-82
2022/11/19 08:16:03;;;;;;;69.38;26.52;;;;;;;2.23;100.00;100833.53;4986539;28;20038;-83
2022/11/19 08:18:29;;;;;;;70.00;28.95;;;;;;;2.16;100.00;100825.72;5001806;28;20053;-82
2022/11/19 08:20:55;;;;;;;69.75;26.08;;;;;;;2.13;100.00;100824.97;5002866;28;20034;-82
2022/11/19 08:23:22;;;;;;;75.68;28.80;;;;;;;2.31;100.00;100826.88;5018381;28;20094;-83
2022/11/19 08:25:49;;;;;;;77.15;30.08;;;;;;;2.29;100.00;100831.44;5001975;28;20026;-83
2022/11/19 08:28:15;;;;;;;77.88;29.05;;;;;;;2.19;100.00;100824.72;5003023;28;20045;-83
2022/11/19 08:30:40;;;;;;;71.97;28.85;;;;;;;2.25;100.00;100835.25;4981589;28;20026;-83
2022/11/19 08:33:07;;;;;;;68.28;26.92;;;;;;;2.24;100.00;100849.69;5003092;28;20030;-83
2022/11/19 08:35:33;;;;;;;70.82;28.42;;;;;;;2.34;100.00;100844.75;5005200;28;20046;-84
2022/11/19 08:37:58;;;;;;;63.60;25.05;;;;;;;2.27;100.00;100848.69;5003785;28;20046;-84
2022/11/19 08:40:24;;;;;;;68.10;25.48;;;;;;;2.28;100.00;100861.22;4987536;28;20062;-83
2022/11/19 08:42:59;;;;;;;74.30;27.92;;;;;;;2.35;100.00;100860.03;5020687;28;20030;-83
2022/11/19 08:45:33;;;;;;;76.82;27.25;;;;;;;2.03;100.00;100848.81;4994080;28;20545;-82
2022/11/19 08:48:01;;;;;;;71.38;28.15;;;;;;;2.14;100.00;100867.25;5001034;28;20038;-83
2022/11/19 08:50:28;;;;;;;75.00;27.30;;;;;;;2.11;100.00;100865.53;4998405;28;20418;-83
2022/11/19 08:53:02;;;;;;;65.78;24.00;;;;;;;2.24;100.00;100859.63;4986857;28;20105;-82
2022/11/19 08:55:29;;;;;;;75.43;26.70;;;;;;;2.19;100.00;100867.91;5004044;28;20034;-82
2022/11/19 08:58:02;;;;;;;69.40;25.50;;;;;;;2.10;100.00;100861.13;4987118;28;20065;-83
2022/11/19 09:00:29;;;;;;;66.57;25.48;;;;;;;2.09;100.00;100858.47;4967760;28;20027;-84
2022/11/19 09:02:54;;;;;;;64.53;23.75;;;;;;;2.11;100.00;100870.09;4986189;28;20034;-84
2022/11/19 09:05:20;;;;;;;73.03;26.85;;;;;;;2.09;100.00;100871.97;4987042;28;20490;-84
2022/11/19 09:07:45;;;;;;;77.00;25.10;;;;;;;2.09;100.00;100878.25;5003162;28;20034;-83
2022/11/19 09:10:11;;;;;;;66.45;24.65;;;;;;;2.07;100.00;100860.38;4984429;28;20039;-84
2022/11/19 09:12:36;;;;;;;69.38;24.48;;;;;;;2.06;100.00;100862.19;4984044;28;20510;-84
2022/11/19 09:15:02;;;;;;;68.72;26.13;;;;;;;2.19;100.00;100879.59;4967653;28;20066;-84
2022/11/19 09:17:28;;;;;;;60.75;22.40;;;;;;;2.25;100.00;100889.28;4986695;28;20117;-84
2022/11/19 09:19:54;;;;;;;55.55;20.90;;;;;;;2.25;100.00;100889.28;4987202;28;20414;-84
2022/11/19 09:22:20;;;;;;;58.95;22.60;;;;;;;2.19;100.00;100894.94;4986235;28;20066;-84
2022/11/19 09:24:45;;;;;;;55.20;22.10;;;;;;;2.26;100.00;100893.69;4987444;28;20038;-84
2022/11/19 09:27:10;;;;;;;59.40;22.83;;;;;;;2.24;100.00;100895.59;4968139;28;20031;-83
2022/11/19 09:29:36;;;;;;;64.32;22.52;;;;;;;2.29;100.00;100882.75;4983984;28;20058;-84
2022/11/19 09:32:01;;;;;;;58.92;21.67;;;;;;;2.31;100.00;100890.81;4985640;28;20048;-84
2022/11/19 09:34:27;;;;;;;64.60;24.50;;;;;;;2.31;100.00;100902.50;5003281;28;20116;-83
2022/11/19 09:36:52;;;;;;;49.90;19.55;;;;;;;2.49;100.00;100889.09;5001665;28;20721;-83
2022/11/19 09:39:18;;;;;;;54.85;21.35;;;;;;;2.31;100.00;100901.63;4999232;28;20054;-84
2022/11/19 09:42:09;;;;;;;51.92;22.27;;;;;;;2.31;100.00;100912.41;4986465;28;20109;-84
2022/11/19 09:44:52;;;;;;;58.17;21.25;;;;;;;2.31;100.00;100909.72;4980429;28;20050;-84
2022/11/19 09:47:32;;;;;;;64.75;24.10;;;;;;;2.19;100.00;100921.94;5002489;28;20030;-84
2022/11/19 09:50:04;;;;;;;54.53;19.55;;;;;;;2.32;100.00;100925.84;4986221;28;20046;-84
2022/11/19 09:52:34;;;;;;;53.90;21.33;;;;;;;2.27;100.00;100927.88;4985143;28;20026;-84
2022/11/19 09:55:01;;;;;;;61.83;23.17;;;;;;;2.20;100.00;100932.69;5002033;28;20398;-84
2022/11/19 09:57:34;;;;;;;57.60;22.63;;;;;;;2.23;100.00;100928.97;5001890;28;20034;-83
2022/11/19 10:00:01;;;;;;;64.45;22.40;;;;;;;2.22;100.00;100931.75;4986067;28;20033;-84
2022/11/19 10:02:26;;;;;;;63.13;23.33;;;;;;;2.19;100.00;100941.72;4970177;28;20038;-84
2022/11/19 10:04:52;;;;;;;58.63;23.08;;;;;;;2.34;100.00;100928.50;5001416;28;20458;-81
2022/11/19 10:07:36;;;;;;;54.30;21.00;;;;;;;2.35;100.00;100935.66;4985445;28;20049;-83
2022/11/19 10:10:11;;;;;;;51.53;22.98;;;;;;;2.30;100.00;100940.41;5016957;28;20039;-83
2022/11/19 10:12:52;;;;;;;55.10;21.58;;;;;;;2.26;100.00;100942.31;4999888;28;20070;-82
2022/11/19 10:15:35;;;;;;;54.95;22.48;;;;;;;2.32;100.00;100943.91;4998405;28;20475;-83
2022/11/19 10:18:12;;;;;;;54.22;21.35;;;;;;;2.34;100.00;100948.28;4994150;28;20031;-83
2022/11/19 10:21:01;;;;;;;52.85;20.67;;;;;;;2.44;100.00;100956.84;5001969;28;20015;-83
2022/11/19 10:23:54;;;;;;;62.85;21.52;;;;;;;2.43;100.00;100954.22;5001473;28;20045;-83
2022/11/19 10:26:40;;;;;;;50.58;20.48;;;;;;;2.15;100.00;100942.81;5001026;28;20062;-83
2022/11/19 10:29:19;;;;;;;54.47;20.80;;;;;;;2.18;100.00;100955.28;5001464;28;20046;-83
2022/11/19 10:31:47;;;;;;;46.10;20.08;;;;;;;2.31;100.00;100956.53;5000806;28;20065;-83
2022/11/19 10:34:29;;;;;;;48.78;18.92;;;;;;;2.20;100.00;100939.91;4980553;28;20479;-83
2022/11/19 10:37:06;;;;;;;60.65;21.13;;;;;;;2.22;100.00;100947.97;4998169;28;20088;-83
2022/11/19 10:39:38;;;;;;;54.42;21.63;;;;;;;2.19;100.00;100946.25;5006350;28;20030;-82
2022/11/19 10:42:19;;;;;;;49.30;20.20;;;;;;;2.41;100.00;100948.91;5000464;28;20030;-83
2022/11/19 10:44:52;;;;;;;52.30;20.98;;;;;;;2.41;100.00;100945.31;4999301;28;20038;-82
2022/11/19 10:47:43;;;;;;;56.10;21.70;;;;;;;2.48;100.00;100942.28;5012272;28;20038;-82
2022/11/19 10:50:21;;;;;;;56.10;21.67;;;;;;;2.28;100.00;100955.78;4990582;28;20038;-81
2022/11/19 10:52:56;;;;;;;49.10;19.45;;;;;;;2.27;100.00;100954.03;4997493;28;20038;-80
2022/11/19 10:55:34;;;;;;;49.00;20.27;;;;;;;2.41;100.00;100957.03;4998153;28;20100;-79
2022/11/19 10:58:09;;;;;;;54.42;21.33;;;;;;;2.39;100.00;100957.09;4983227;28;20041;-79
2022/11/19 11:00:36;;;;;;;56.03;22.08;;;;;;;2.41;100.00;100961.53;4982060;28;20045;-80
2022/11/19 11:03:02;;;;;;;53.90;20.73;;;;;;;2.45;100.00;100961.34;4997550;28;20093;-78
2022/11/19 11:05:28;;;;;;;52.08;21.25;;;;;;;2.39;100.00;100958.88;4982464;28;20038;-78
2022/11/19 11:07:59;;;;;;;52.25;19.60;;;;;;;2.49;100.00;100956.66;4996559;28;20026;-79
2022/11/19 11:10:43;;;;;;;51.13;20.23;;;;;;;2.32;100.00;100958.28;5001903;28;20038;-79
2022/11/19 11:16:17;;;;;;;54.42;20.45;;;;;;;2.23;100.00;100953.28;5038027;28;19917;-78
2022/11/19 11:18:44;;;;;;;49.00;20.00;;;;;;;2.27;100.00;100957.59;5036996;28;20081;-79
2022/11/19 11:21:20;;;;;;;44.88;19.30;;;;;;;2.27;100.00;100956.72;5036222;28;20026;-81
2022/11/19 11:23:55;;;;;;;48.20;19.13;;;;;;;2.33;100.00;100945.66;5019497;28;20037;-80
2022/11/19 11:26:24;;;;;;;44.65;17.73;;;;;;;2.37;100.00;100950.84;5013310;28;20099;-79
2022/11/19 11:29:13;;;;;;;50.70;19.92;;;;;;;2.25;100.00;100954.09;5016526;28;20037;-79
2022/11/19 11:31:43;;;;;;;48.08;18.70;;;;;;;2.27;100.00;100951.34;5037491;28;20102;-78
2022/11/19 11:34:14;;;;;;;58.95;21.50;;;;;;;2.29;100.00;100953.00;5020188;28;20029;-79